Time;durP1;ratioP1;P1;durP2;ratioP2;P2;SDS_P1;SDS_P2;PMS_P1;PMS_P2;Temp;Humidity;BMP_temperature;BMP_pressure;BME280_temperature;BME280_humidity;BME280_pressure;Samples;Min_cycle;Max_cycle;Signal;HPM_P1;HPM_P2
2022/06/30 00:01:46;;;;;;;4.10;3.70;;;;;;;;;;5072611;23;21010;-74
2022/06/30 00:04:12;;;;;;;3.70;3.40;;;;;;;;;;5058944;28;20549;-74
2022/06/30 00:06:38;;;;;;;4.67;4.23;;;;;;;;;;5059052;28;20463;-74
2022/06/30 00:09:05;;;;;;;4.17;3.87;;;;;;;;;;5058573;28;20812;-74
2022/06/30 00:11:31;;;;;;;5.00;4.13;;;;;;;;;;5057671;28;20475;-74
2022/06/30 00:13:58;;;;;;;3.73;3.43;;;;;;;;;;5058385;28;20466;-73
2022/06/30 00:16:25;;;;;;;3.37;3.07;;;;;;;;;;5058265;28;20869;-74
2022/06/30 00:18:52;;;;;;;4.37;3.97;;;;;;;;;;5058790;28;20470;-74
2022/06/30 00:21:18;;;;;;;3.50;3.20;;;;;;;;;;5059450;28;20434;-74
2022/06/30 00:23:45;;;;;;;3.33;3.03;;;;;;;;;;5057596;28;20483;-74
2022/06/30 00:26:11;;;;;;;4.83;4.13;;;;;;;;;;5058415;28;20475;-74
2022/06/30 00:28:37;;;;;;;3.70;3.20;;;;;;;;;;5054717;28;20479;-74
2022/06/30 00:31:04;;;;;;;5.20;3.90;;;;;;;;;;5059022;28;20474;-74
2022/06/30 00:33:31;;;;;;;3.70;3.40;;;;;;;;;;5057208;28;21010;-73
2022/06/30 00:35:58;;;;;;;4.97;3.50;;;;;;;;;;5056577;28;20468;-73
2022/06/30 00:38:24;;;;;;;5.80;4.40;;;;;;;;;;5056689;28;20487;-74
2022/06/30 00:40:50;;;;;;;5.63;4.13;;;;;;;;;;5058315;28;20433;-74
2022/06/30 00:43:17;;;;;;;5.63;4.30;;;;;;;;;;5057287;28;20479;-74
2022/06/30 00:45:43;;;;;;;3.77;3.47;;;;;;;;;;5056274;28;20465;-74
2022/06/30 00:48:10;;;;;;;5.00;3.40;;;;;;;;;;5057507;28;20479;-74
2022/06/30 00:50:38;;;;;;;4.53;3.43;;;;;;;;;;5056955;28;20471;-74
2022/06/30 00:53:05;;;;;;;3.90;3.60;;;;;;;;;;5056601;28;20490;-74
2022/06/30 00:55:32;;;;;;;4.53;3.53;;;;;;;;;;5058515;28;20438;-74
2022/06/30 00:58:00;;;;;;;4.83;4.40;;;;;;;;;;5056954;28;20479;-73
2022/06/30 01:00:27;;;;;;;4.77;4.43;;;;;;;;;;5054468;28;20811;-74
2022/06/30 01:02:54;;;;;;;5.27;4.80;;;;;;;;;;5057577;28;20479;-73
2022/06/30 01:05:21;;;;;;;5.30;4.80;;;;;;;;;;5055553;28;20464;-74
2022/06/30 01:07:50;;;;;;;6.27;4.60;;;;;;;;;;5056956;28;21001;-74
2022/06/30 01:13:00;;;;;;;6.57;5.93;;;;;;;;;;5058459;28;20983;-74
2022/06/30 01:15:26;;;;;;;4.40;4.10;;;;;;;;;;5056342;28;20460;-74
2022/06/30 01:17:52;;;;;;;6.07;5.23;;;;;;;;;;5055573;28;20467;-74
2022/06/30 01:20:24;;;;;;;5.50;5.00;;;;;;;;;;5057544;28;20456;-74
2022/06/30 01:22:52;;;;;;;5.97;4.80;;;;;;;;;;5057859;28;20602;-74
2022/06/30 01:25:18;;;;;;;6.53;5.10;;;;;;;;;;5058935;28;20466;-74
2022/06/30 01:27:44;;;;;;;5.77;5.20;;;;;;;;;;5056051;28;20483;-74
2022/06/30 01:30:11;;;;;;;7.87;4.93;;;;;;;;;;5058556;28;21040;-73
2022/06/30 01:32:38;;;;;;;7.63;4.90;;;;;;;;;;5055422;28;20479;-74
2022/06/30 01:35:05;;;;;;;8.13;4.80;;;;;;;;;;5055097;28;20451;-74
2022/06/30 01:37:44;;;;;;;8.17;4.67;;;;;;;;;;5056900;28;20458;-74
2022/06/30 01:40:12;;;;;;;6.03;5.43;;;;;;;;;;5057334;28;20953;-74
2022/06/30 01:42:38;;;;;;;5.80;5.07;;;;;;;;;;5057475;28;20476;-74
2022/06/30 01:47:38;;;;;;;6.23;4.60;;;;;;;;;;5054514;28;20449;-73
2022/06/30 01:50:05;;;;;;;5.70;4.43;;;;;;;;;;5058087;28;20455;-74
2022/06/30 01:52:31;;;;;;;5.67;5.10;;;;;;;;;;5056997;28;20447;-73
2022/06/30 01:54:57;;;;;;;7.10;4.80;;;;;;;;;;5058013;28;21363;-74
2022/06/30 01:57:25;;;;;;;6.40;4.73;;;;;;;;;;5057416;28;20481;-74
2022/06/30 01:59:51;;;;;;;5.03;4.53;;;;;;;;;;5058064;28;20425;-74
2022/06/30 02:02:18;;;;;;;7.40;5.20;;;;;;;;;;5057369;28;20461;-74
2022/06/30 02:04:51;;;;;;;6.63;5.93;;;;;;;;;;5057920;28;20502;-74
2022/06/30 02:07:17;;;;;;;5.30;4.90;;;;;;;;;;5055900;28;20446;-74
2022/06/30 02:09:44;;;;;;;7.73;5.17;;;;;;;;;;5057456;28;20469;-74
2022/06/30 02:14:56;;;;;;;6.07;5.47;;;;;;;;;;5059003;28;20569;-74
2022/06/30 02:17:22;;;;;;;5.80;4.60;;;;;;;;;;5057659;28;20446;-73
2022/06/30 02:19:49;;;;;;;10.50;5.30;;;;;;;;;;5059761;28;20455;-74
2022/06/30 02:22:15;;;;;;;8.50;5.43;;;;;;;;;;5059555;28;20449;-74
2022/06/30 02:24:42;;;;;;;6.00;5.40;;;;;;;;;;5061059;28;20438;-74
2022/06/30 02:27:08;;;;;;;6.20;4.83;;;;;;;;;;5059324;28;20448;-74
2022/06/30 02:29:34;;;;;;;5.13;4.63;;;;;;;;;;5062297;28;20435;-74
2022/06/30 02:32:02;;;;;;;9.10;5.00;;;;;;;;;;5059150;28;20474;-74
2022/06/30 02:34:29;;;;;;;5.90;5.30;;;;;;;;;;5061034;28;20467;-73
2022/06/30 02:36:55;;;;;;;5.43;5.00;;;;;;;;;;5056969;28;20471;-74
2022/06/30 02:39:21;;;;;;;5.27;4.77;;;;;;;;;;5059802;28;20436;-74
2022/06/30 02:41:48;;;;;;;6.43;5.83;;;;;;;;;;5059646;28;20458;-74
2022/06/30 02:44:14;;;;;;;6.17;5.67;;;;;;;;;;5060456;28;20481;-74
2022/06/30 02:46:41;;;;;;;6.27;5.67;;;;;;;;;;5060143;28;20483;-74
2022/06/30 02:49:08;;;;;;;5.30;4.80;;;;;;;;;;5061711;28;20467;-74
2022/06/30 02:51:35;;;;;;;6.80;5.10;;;;;;;;;;5059715;28;20457;-74
2022/06/30 02:54:01;;;;;;;5.53;5.03;;;;;;;;;;5060650;28;20491;-73
2022/06/30 02:56:27;;;;;;;5.87;5.27;;;;;;;;;;5059628;28;20439;-74
2022/06/30 02:58:54;;;;;;;9.20;5.10;;;;;;;;;;5060203;28;20433;-74
2022/06/30 03:01:20;;;;;;;6.00;5.50;;;;;;;;;;5062448;28;20444;-74
2022/06/30 03:03:46;;;;;;;6.97;4.93;;;;;;;;;;5061460;28;20479;-74
2022/06/30 03:06:14;;;;;;;6.87;5.27;;;;;;;;;;5061093;28;20467;-74
2022/06/30 03:08:40;;;;;;;5.30;4.87;;;;;;;;;;5061588;28;20463;-73
2022/06/30 03:11:07;;;;;;;5.90;5.30;;;;;;;;;;5058909;28;20439;-74
2022/06/30 03:13:33;;;;;;;5.97;5.50;;;;;;;;;;5061533;28;20434;-74
2022/06/30 03:16:01;;;;;;;7.53;5.47;;;;;;;;;;5061776;28;20418;-74
2022/06/30 03:18:28;;;;;;;5.63;5.23;;;;;;;;;;5061525;28;20977;-73
2022/06/30 03:20:56;;;;;;;5.50;5.00;;;;;;;;;;5061266;28;20447;-73
2022/06/30 03:23:25;;;;;;;6.07;5.03;;;;;;;;;;5059067;28;20482;-73
2022/06/30 03:25:51;;;;;;;6.73;5.13;;;;;;;;;;5057923;28;20511;-73
2022/06/30 03:28:17;;;;;;;6.03;5.43;;;;;;;;;;5058194;28;20472;-74
2022/06/30 03:30:45;;;;;;;7.17;5.30;;;;;;;;;;5061542;28;20460;-73
2022/06/30 03:33:12;;;;;;;7.00;4.90;;;;;;;;;;5059866;28;21051;-73
2022/06/30 03:35:38;;;;;;;5.67;5.23;;;;;;;;;;5059848;28;20467;-73
2022/06/30 03:38:04;;;;;;;5.47;4.93;;;;;;;;;;5058067;28;20473;-74
2022/06/30 03:40:32;;;;;;;6.57;4.97;;;;;;;;;;5058871;28;20548;-74
2022/06/30 03:42:59;;;;;;;5.63;5.13;;;;;;;;;;5058905;28;20487;-74
2022/06/30 03:45:25;;;;;;;6.23;5.10;;;;;;;;;;5060108;28;20455;-74
2022/06/30 03:47:52;;;;;;;5.63;5.13;;;;;;;;;;5060233;28;20449;-73
2022/06/30 03:50:18;;;;;;;8.67;5.50;;;;;;;;;;5060882;28;20445;-74
2022/06/30 03:52:44;;;;;;;5.87;5.30;;;;;;;;;;5055341;28;20445;-74
2022/06/30 03:55:10;;;;;;;7.37;5.57;;;;;;;;;;5059411;28;20450;-73
2022/06/30 03:57:38;;;;;;;6.80;5.40;;;;;;;;;;5056152;28;20482;-73
2022/06/30 04:00:05;;;;;;;6.07;5.27;;;;;;;;;;5057914;28;20462;-73
2022/06/30 04:02:32;;;;;;;7.50;6.80;;;;;;;;;;5057650;28;20483;-73
2022/06/30 04:04:58;;;;;;;5.87;5.40;;;;;;;;;;5058462;28;20456;-74
2022/06/30 04:07:24;;;;;;;10.33;5.67;;;;;;;;;;5057261;28;20476;-73
2022/06/30 04:09:51;;;;;;;7.70;5.30;;;;;;;;;;5058261;28;20804;-74
2022/06/30 04:12:17;;;;;;;6.03;5.43;;;;;;;;;;5058166;28;20464;-74
2022/06/30 04:14:45;;;;;;;7.07;6.10;;;;;;;;;;5058095;28;21000;-74
2022/06/30 04:17:11;;;;;;;6.17;5.70;;;;;;;;;;5058315;28;20446;-74
2022/06/30 04:19:38;;;;;;;6.47;5.73;;;;;;;;;;5058802;28;20460;-73
2022/06/30 04:22:04;;;;;;;5.03;4.63;;;;;;;;;;5058286;28;20458;-73
2022/06/30 04:24:31;;;;;;;10.33;5.87;;;;;;;;;;5057120;28;21321;-74
2022/06/30 04:26:57;;;;;;;7.60;6.33;;;;;;;;;;5054320;28;20447;-74
2022/06/30 04:29:23;;;;;;;7.70;5.67;;;;;;;;;;5056544;28;20455;-74
2022/06/30 04:34:35;;;;;;;8.27;6.40;;;;;;;;;;5056763;28;20450;-73
2022/06/30 04:37:01;;;;;;;6.50;5.90;;;;;;;;;;5058234;28;20441;-74
2022/06/30 04:39:27;;;;;;;6.43;5.53;;;;;;;;;;5060604;28;20422;-74
2022/06/30 04:41:52;;;;;;;6.47;5.87;;;;;;;;;;5055522;28;20476;-74
2022/06/30 04:44:19;;;;;;;6.57;5.87;;;;;;;;;;5060374;28;21048;-73
2022/06/30 04:46:45;;;;;;;6.27;5.67;;;;;;;;;;5056109;28;20571;-74
2022/06/30 04:49:13;;;;;;;6.00;5.50;;;;;;;;;;5056283;28;20460;-74
2022/06/30 04:51:39;;;;;;;7.97;7.03;;;;;;;;;;5056604;28;20459;-74
2022/06/30 04:54:05;;;;;;;6.80;6.00;;;;;;;;;;5059214;28;20460;-73
2022/06/30 04:56:32;;;;;;;6.70;5.93;;;;;;;;;;5058059;28;20441;-74
2022/06/30 04:58:58;;;;;;;8.60;6.97;;;;;;;;;;5058961;28;20442;-73
2022/06/30 05:01:25;;;;;;;7.07;5.97;;;;;;;;;;5058829;28;20457;-73
2022/06/30 05:03:51;;;;;;;7.40;6.73;;;;;;;;;;5058300;28;20453;-73
2022/06/30 05:06:19;;;;;;;9.23;7.40;;;;;;;;;;5057080;28;20433;-73
2022/06/30 05:08:45;;;;;;;6.60;6.00;;;;;;;;;;5059187;28;20475;-73
2022/06/30 05:11:11;;;;;;;9.40;5.90;;;;;;;;;;5057883;28;20429;-73
2022/06/30 05:13:37;;;;;;;10.70;6.23;;;;;;;;;;5052792;28;20480;-73
2022/06/30 05:16:04;;;;;;;7.83;5.63;;;;;;;;;;5057164;28;21247;-73
2022/06/30 05:18:31;;;;;;;6.00;5.20;;;;;;;;;;5056460;28;20481;-73
2022/06/30 05:20:57;;;;;;;6.57;5.97;;;;;;;;;;5059111;28;20474;-73
2022/06/30 05:23:25;;;;;;;7.67;5.63;;;;;;;;;;5054836;28;20474;-73
2022/06/30 05:28:35;;;;;;;9.33;5.60;;;;;;;;;;5057246;28;20477;-73
2022/06/30 05:31:01;;;;;;;8.30;5.03;;;;;;;;;;5059188;28;20470;-73
2022/06/30 05:33:28;;;;;;;6.57;5.97;;;;;;;;;;5054170;28;20475;-73
2022/06/30 05:35:54;;;;;;;5.53;5.03;;;;;;;;;;5057125;28;20442;-73
2022/06/30 05:38:21;;;;;;;6.23;5.63;;;;;;;;;;5057392;28;21060;-73
2022/06/30 05:40:48;;;;;;;6.93;6.00;;;;;;;;;;5059131;28;20470;-73
2022/06/30 05:43:15;;;;;;;9.67;5.10;;;;;;;;;;5053684;28;20480;-73
2022/06/30 05:45:41;;;;;;;7.37;5.43;;;;;;;;;;5057834;28;20450;-73
2022/06/30 05:48:08;;;;;;;7.17;5.63;;;;;;;;;;5057665;28;20445;-73
2022/06/30 05:50:34;;;;;;;6.50;5.10;;;;;;;;;;5057345;28;20443;-73
2022/06/30 05:53:00;;;;;;;8.17;5.50;;;;;;;;;;5062320;28;20474;-73
2022/06/30 05:55:27;;;;;;;7.20;5.60;;;;;;;;;;5063304;28;20446;-73
2022/06/30 05:57:55;;;;;;;6.00;4.93;;;;;;;;;;5062161;28;20445;-73
2022/06/30 06:00:23;;;;;;;9.77;5.67;;;;;;;;;;5060122;28;20895;-73
2022/06/30 06:02:49;;;;;;;6.60;5.23;;;;;;;;;;5072277;23;20501;-76
2022/06/30 06:05:15;;;;;;;7.70;5.90;;;;;;;;;;5061896;28;20458;-76
2022/06/30 06:07:42;;;;;;;5.10;4.70;;;;;;;;;;5056769;28;20450;-76
2022/06/30 06:10:09;;;;;;;6.40;4.70;;;;;;;;;;5061757;28;21408;-76
2022/06/30 06:12:35;;;;;;;5.80;5.20;;;;;;;;;;5052900;28;20472;-76
2022/06/30 06:15:03;;;;;;;7.33;5.33;;;;;;;;;;5040789;28;20430;-76
2022/06/30 06:17:30;;;;;;;6.27;5.77;;;;;;;;;;5039132;28;20468;-76
2022/06/30 06:19:57;;;;;;;7.40;5.67;;;;;;;;;;5043364;28;20491;-77
2022/06/30 06:22:23;;;;;;;10.80;5.10;;;;;;;;;;5040249;28;20991;-76
2022/06/30 06:24:50;;;;;;;8.03;5.27;;;;;;;;;;5043350;28;20511;-76
2022/06/30 06:27:16;;;;;;;5.47;4.97;;;;;;;;;;5039186;28;20450;-77
2022/06/30 06:29:42;;;;;;;6.57;5.40;;;;;;;;;;5041059;28;20461;-78
2022/06/30 06:32:10;;;;;;;5.60;5.10;;;;;;;;;;5042295;28;20986;-76
2022/06/30 06:34:36;;;;;;;5.90;5.30;;;;;;;;;;5039800;28;20456;-77
2022/06/30 06:37:03;;;;;;;8.07;5.83;;;;;;;;;;5040847;28;21008;-76
2022/06/30 06:39:29;;;;;;;6.47;5.13;;;;;;;;;;5042433;28;20819;-77
2022/06/30 06:41:55;;;;;;;6.57;5.40;;;;;;;;;;5041548;28;20475;-77
2022/06/30 06:44:22;;;;;;;6.33;5.10;;;;;;;;;;5041533;28;20912;-79
2022/06/30 06:46:48;;;;;;;6.77;4.70;;;;;;;;;;5039866;28;20459;-76
2022/06/30 06:49:15;;;;;;;5.40;4.90;;;;;;;;;;5041831;28;20468;-77
2022/06/30 06:51:42;;;;;;;6.37;4.47;;;;;;;;;;5041217;28;20943;-77
2022/06/30 06:54:08;;;;;;;6.70;6.10;;;;;;;;;;5042018;28;20444;-77
2022/06/30 06:56:34;;;;;;;7.13;5.27;;;;;;;;;;5040484;28;20833;-76
2022/06/30 06:59:01;;;;;;;6.07;5.23;;;;;;;;;;5041135;28;20465;-77
2022/06/30 07:01:27;;;;;;;5.80;5.00;;;;;;;;;;5041610;28;20440;-77
2022/06/30 07:03:53;;;;;;;5.30;4.80;;;;;;;;;;5038287;28;20475;-77
2022/06/30 07:06:21;;;;;;;6.90;5.70;;;;;;;;;;5041199;28;20448;-77
2022/06/30 07:08:47;;;;;;;7.47;5.90;;;;;;;;;;5039976;28;20468;-77
2022/06/30 07:11:13;;;;;;;8.33;5.27;;;;;;;;;;5042042;28;20464;-77
2022/06/30 07:13:40;;;;;;;6.07;5.57;;;;;;;;;;5041705;28;21178;-77
2022/06/30 07:16:06;;;;;;;8.00;6.10;;;;;;;;;;5041578;28;20444;-77
2022/06/30 07:18:32;;;;;;;9.23;6.43;;;;;;;;;;5039530;28;20481;-77
2022/06/30 07:20:59;;;;;;;6.67;6.10;;;;;;;;;;5040603;28;20474;-77
2022/06/30 07:23:26;;;;;;;6.40;5.80;;;;;;;;;;5041726;28;20472;-77
2022/06/30 07:25:53;;;;;;;6.73;5.40;;;;;;;;;;5041564;28;20470;-77
2022/06/30 07:28:19;;;;;;;5.90;5.30;;;;;;;;;;5041637;28;20465;-77
2022/06/30 07:30:45;;;;;;;6.63;5.40;;;;;;;;;;5041269;28;20848;-77
2022/06/30 07:33:12;;;;;;;7.53;6.70;;;;;;;;;;5040393;28;20471;-77
2022/06/30 07:35:38;;;;;;;8.60;6.00;;;;;;;;;;5039990;28;20467;-77
2022/06/30 07:38:04;;;;;;;11.33;6.50;;;;;;;;;;5041287;28;20464;-77
2022/06/30 07:40:32;;;;;;;7.33;5.50;;;;;;;;;;5040668;28;20811;-77
2022/06/30 07:42:58;;;;;;;5.87;5.27;;;;;;;;;;5039485;28;20464;-77
2022/06/30 07:45:25;;;;;;;7.73;5.93;;;;;;;;;;5041447;28;20491;-77
2022/06/30 07:47:53;;;;;;;8.00;6.63;;;;;;;;;;5039478;28;20476;-76
2022/06/30 07:50:19;;;;;;;8.10;6.50;;;;;;;;;;5041198;28;20464;-77
2022/06/30 07:52:46;;;;;;;7.47;6.20;;;;;;;;;;5036984;28;20483;-77
2022/06/30 07:55:13;;;;;;;6.97;6.37;;;;;;;;;;5040880;28;20440;-76
2022/06/30 07:57:42;;;;;;;7.83;6.77;;;;;;;;;;5037568;28;20476;-77
2022/06/30 08:00:09;;;;;;;6.30;5.80;;;;;;;;;;5040966;28;20449;-76
2022/06/30 08:02:36;;;;;;;7.27;6.53;;;;;;;;;;5039984;28;20477;-77
2022/06/30 08:05:02;;;;;;;6.80;6.10;;;;;;;;;;5040065;28;21018;-77
2022/06/30 08:07:29;;;;;;;5.97;5.57;;;;;;;;;;5039887;28;20469;-77
2022/06/30 08:09:55;;;;;;;6.30;5.73;;;;;;;;;;5040019;28;20454;-76
2022/06/30 08:12:21;;;;;;;6.73;6.03;;;;;;;;;;5038583;28;20502;-77
2022/06/30 08:14:49;;;;;;;7.13;6.43;;;;;;;;;;5039170;28;20464;-77
2022/06/30 08:17:15;;;;;;;6.77;6.20;;;;;;;;;;5038545;28;20487;-76
2022/06/30 08:19:42;;;;;;;7.10;6.40;;;;;;;;;;5039752;28;20453;-76
2022/06/30 08:22:08;;;;;;;7.00;6.30;;;;;;;;;;5040104;28;20846;-76
2022/06/30 08:24:35;;;;;;;6.20;5.70;;;;;;;;;;5038060;28;21215;-77
2022/06/30 08:27:02;;;;;;;10.30;6.50;;;;;;;;;;5039434;28;20483;-77
2022/06/30 08:29:29;;;;;;;7.90;6.70;;;;;;;;;;5036331;28;20460;-76
2022/06/30 08:31:56;;;;;;;6.87;6.27;;;;;;;;;;5039792;28;20460;-77
2022/06/30 08:34:23;;;;;;;7.17;6.30;;;;;;;;;;5038917;28;20443;-77
2022/06/30 08:36:49;;;;;;;7.63;6.87;;;;;;;;;;5039275;28;20465;-76
2022/06/30 08:42:05;;;;;;;7.87;7.07;;;;;;;;;;5039027;28;20546;-76
2022/06/30 08:44:32;;;;;;;7.10;6.40;;;;;;;;;;5040692;28;20570;-77
2022/06/30 08:47:00;;;;;;;6.73;6.10;;;;;;;;;;5040252;28;20472;-77
2022/06/30 08:49:27;;;;;;;6.80;6.20;;;;;;;;;;5037863;28;20457;-77
2022/06/30 08:51:54;;;;;;;7.60;7.00;;;;;;;;;;5037116;28;20468;-77
2022/06/30 08:54:22;;;;;;;7.50;6.57;;;;;;;;;;5040128;28;20437;-77
2022/06/30 08:56:50;;;;;;;7.10;6.33;;;;;;;;;;5038987;28;20463;-77
2022/06/30 08:59:17;;;;;;;8.70;6.80;;;;;;;;;;5040053;28;20445;-76
2022/06/30 09:01:44;;;;;;;6.70;6.00;;;;;;;;;;5039493;28;20455;-77
2022/06/30 09:04:12;;;;;;;6.20;5.70;;;;;;;;;;5039573;28;20872;-76
2022/06/30 09:06:39;;;;;;;6.27;5.70;;;;;;;;;;5037794;28;20461;-76
2022/06/30 09:09:06;;;;;;;6.87;6.27;;;;;;;;;;5039499;28;20444;-76
2022/06/30 09:11:45;;;;;;;7.57;6.50;;;;;;;;;;5039302;28;20999;-77
2022/06/30 09:14:11;;;;;;;6.93;6.33;;;;;;;;;;5038591;28;20816;-77
2022/06/30 09:16:51;;;;;;;7.23;5.90;;;;;;;;;;5036997;28;20464;-77
2022/06/30 09:19:19;;;;;;;7.17;6.17;;;;;;;;;;5039046;28;20827;-77
2022/06/30 09:22:01;;;;;;;7.30;6.43;;;;;;;;;;5035217;28;20483;-76
2022/06/30 09:24:28;;;;;;;7.47;6.23;;;;;;;;;;5037806;28;20475;-76
2022/06/30 09:27:08;;;;;;;6.23;5.57;;;;;;;;;;5036814;28;20456;-76
2022/06/30 09:29:34;;;;;;;6.90;5.50;;;;;;;;;;5038123;28;20440;-77
2022/06/30 09:32:01;;;;;;;7.27;6.43;;;;;;;;;;5037495;28;20476;-77
2022/06/30 09:34:29;;;;;;;6.13;5.57;;;;;;;;;;5039169;28;20463;-77
2022/06/30 09:36:55;;;;;;;7.27;5.73;;;;;;;;;;5039225;28;20460;-77
2022/06/30 09:39:22;;;;;;;6.13;5.53;;;;;;;;;;5039960;28;20452;-77
2022/06/30 09:41:49;;;;;;;6.20;5.60;;;;;;;;;;5038733;28;20460;-77
2022/06/30 09:44:19;;;;;;;6.70;6.10;;;;;;;;;;5039727;28;20752;-77
2022/06/30 09:46:54;;;;;;;6.00;5.47;;;;;;;;;;5039285;28;20470;-77
2022/06/30 09:49:29;;;;;;;6.30;5.80;;;;;;;;;;5039282;28;20460;-77
2022/06/30 09:51:55;;;;;;;6.03;5.43;;;;;;;;;;5037487;28;20475;-77
2022/06/30 09:54:22;;;;;;;6.17;5.57;;;;;;;;;;5038041;28;20472;-76
2022/06/30 09:57:00;;;;;;;6.50;5.90;;;;;;;;;;5039466;28;20459;-77
2022/06/30 09:59:26;;;;;;;5.90;5.33;;;;;;;;;;5039803;28;20449;-76
2022/06/30 10:01:53;;;;;;;6.17;5.70;;;;;;;;;;5039020;28;20472;-76
2022/06/30 10:04:19;;;;;;;6.57;5.97;;;;;;;;;;5035150;28;20460;-76
2022/06/30 10:06:47;;;;;;;6.27;5.67;;;;;;;;;;5037062;28;20467;-78
2022/06/30 10:09:15;;;;;;;6.60;6.00;;;;;;;;;;5037203;28;20452;-78
2022/06/30 10:11:42;;;;;;;7.03;5.70;;;;;;;;;;5034932;28;20471;-77
2022/06/30 10:14:09;;;;;;;7.13;5.93;;;;;;;;;;5039608;28;20456;-78
2022/06/30 10:16:35;;;;;;;6.30;5.67;;;;;;;;;;5038778;28;20454;-77
2022/06/30 10:19:01;;;;;;;6.80;6.00;;;;;;;;;;5039553;28;20452;-78
2022/06/30 10:21:28;;;;;;;7.00;6.40;;;;;;;;;;5037768;28;20465;-78
2022/06/30 10:23:56;;;;;;;8.13;5.63;;;;;;;;;;5036854;28;20831;-78
2022/06/30 10:29:06;;;;;;;6.03;5.60;;;;;;;;;;5037502;28;20839;-78
2022/06/30 10:31:35;;;;;;;6.37;5.77;;;;;;;;;;5038659;28;20456;-78
2022/06/30 10:34:08;;;;;;;5.73;5.23;;;;;;;;;;5038926;28;20461;-78
2022/06/30 10:36:38;;;;;;;6.37;5.40;;;;;;;;;;5036648;28;20440;-78
2022/06/30 10:39:10;;;;;;;6.30;5.80;;;;;;;;;;5040856;28;20456;-78
2022/06/30 10:41:43;;;;;;;5.87;5.40;;;;;;;;;;5041892;28;20440;-78
2022/06/30 10:44:12;;;;;;;6.00;5.40;;;;;;;;;;5041192;28;20460;-78
2022/06/30 10:46:55;;;;;;;10.63;5.80;;;;;;;;;;5042079;28;20506;-78
2022/06/30 10:49:22;;;;;;;7.23;5.77;;;;;;;;;;5040285;28;20470;-78
2022/06/30 10:51:48;;;;;;;6.77;6.27;;;;;;;;;;5040689;28;20839;-78
2022/06/30 10:54:27;;;;;;;6.40;5.60;;;;;;;;;;5042755;28;20452;-78
2022/06/30 10:56:57;;;;;;;6.47;5.87;;;;;;;;;;5041284;28;20825;-77
2022/06/30 10:59:27;;;;;;;6.73;6.13;;;;;;;;;;5038127;28;20460;-78
2022/06/30 11:02:13;;;;;;;6.10;5.43;;;;;;;;;;5041498;28;20480;-76
2022/06/30 11:04:41;;;;;;;6.90;6.20;;;;;;;;;;5040690;28;20804;-77
2022/06/30 11:07:10;;;;;;;6.70;6.00;;;;;;;;;;5040798;28;20464;-77
2022/06/30 11:10:07;;;;;;;6.77;6.27;;;;;;;;;;5040297;28;20453;-77
2022/06/30 11:12:54;;;;;;;6.23;5.63;;;;;;;;;;5039961;28;20465;-77
2022/06/30 11:15:20;;;;;;;6.70;5.80;;;;;;;;;;5041269;28;20817;-77
2022/06/30 11:17:48;;;;;;;7.67;6.97;;;;;;;;;;5041462;28;20473;-77
2022/06/30 11:20:14;;;;;;;11.30;6.90;;;;;;;;;;5040820;28;20456;-77
2022/06/30 11:22:41;;;;;;;7.03;6.10;;;;;;;;;;5039831;28;20482;-76
2022/06/30 11:25:08;;;;;;;6.17;5.67;;;;;;;;;;5042342;28;20858;-77
2022/06/30 11:27:36;;;;;;;6.57;6.07;;;;;;;;;;5040277;28;20832;-76
2022/06/30 11:30:04;;;;;;;6.70;6.10;;;;;;;;;;5041041;28;20861;-76
2022/06/30 11:32:31;;;;;;;8.43;6.07;;;;;;;;;;5039661;28;20475;-76
2022/06/30 11:34:57;;;;;;;8.03;6.17;;;;;;;;;;5040551;28;20471;-77
2022/06/30 11:37:24;;;;;;;6.90;6.20;;;;;;;;;;5040970;28;20473;-77
2022/06/30 11:39:56;;;;;;;6.33;5.73;;;;;;;;;;5039431;28;20463;-77
2022/06/30 11:42:22;;;;;;;6.43;5.83;;;;;;;;;;5040252;28;20468;-76
2022/06/30 11:44:49;;;;;;;6.70;6.10;;;;;;;;;;5040346;28;20456;-77
2022/06/30 11:47:17;;;;;;;6.70;6.00;;;;;;;;;;5041269;28;20469;-76
2022/06/30 11:49:44;;;;;;;6.20;5.60;;;;;;;;;;5038238;28;20464;-77
2022/06/30 11:52:13;;;;;;;6.77;6.17;;;;;;;;;;5040163;28;20480;-76
2022/06/30 11:54:42;;;;;;;9.97;6.00;;;;;;;;;;5038479;28;20467;-77
2022/06/30 11:57:08;;;;;;;7.27;6.50;;;;;;;;;;5038911;28;21018;-76
2022/06/30 11:59:36;;;;;;;8.47;6.27;;;;;;;;;;5041040;28;20444;-77
2022/06/30 12:02:03;;;;;;;6.87;6.17;;;;;;;;;;5056057;23;20488;-76
2022/06/30 12:04:32;;;;;;;7.00;6.30;;;;;;;;;;5037676;28;20505;-75
2022/06/30 12:06:58;;;;;;;6.00;5.60;;;;;;;;;;5039696;28;20479;-76
2022/06/30 12:09:24;;;;;;;8.00;6.40;;;;;;;;;;5041266;28;20449;-76
2022/06/30 12:11:51;;;;;;;12.93;5.67;;;;;;;;;;5038277;28;20451;-76
2022/06/30 12:14:17;;;;;;;7.13;6.40;;;;;;;;;;5020760;28;20468;-76
2022/06/30 12:16:44;;;;;;;7.80;6.33;;;;;;;;;;5020361;28;20441;-76
2022/06/30 12:19:13;;;;;;;7.27;6.67;;;;;;;;;;5020709;28;20464;-76
2022/06/30 12:21:42;;;;;;;6.57;5.97;;;;;;;;;;5019894;28;20453;-76
2022/06/30 12:24:09;;;;;;;8.10;6.10;;;;;;;;;;5019674;28;20468;-76
2022/06/30 12:26:35;;;;;;;8.33;6.10;;;;;;;;;;5020022;28;20488;-76
2022/06/30 12:29:10;;;;;;;6.70;6.20;;;;;;;;;;5018867;28;20468;-76
2022/06/30 12:31:37;;;;;;;7.20;6.43;;;;;;;;;;5019402;28;20453;-76
2022/06/30 12:34:03;;;;;;;7.23;6.27;;;;;;;;;;5019701;28;20484;-76
2022/06/30 12:36:31;;;;;;;6.67;6.03;;;;;;;;;;5020828;28;20438;-76
2022/06/30 12:39:10;;;;;;;7.30;6.60;;;;;;;;;;5040216;28;20547;-76
2022/06/30 12:41:36;;;;;;;7.10;5.73;;;;;;;;;;5039555;28;20441;-75
2022/06/30 12:44:03;;;;;;;6.93;6.33;;;;;;;;;;5039487;28;20477;-76
2022/06/30 12:46:29;;;;;;;;;;;;;;;;;;5040342;28;20676;-76
2022/06/30 12:48:55;;;;;;;;;;;;;;;;;;5039147;28;20292;-76
2022/06/30 12:51:21;;;;;;;;;;;;;;;;;;5041221;28;19921;-76
2022/06/30 12:53:49;;;;;;;;;;;;;;;;;;5040383;28;19928;-76
2022/06/30 12:56:17;;;;;;;;;;;;;;;;;;5039775;28;19921;-76
2022/06/30 12:58:43;;;;;;;;;;;;;;;;;;5039776;28;19925;-76
2022/06/30 13:01:10;;;;;;;;;;;;;;;;;;5039430;28;19921;-76
2022/06/30 13:03:36;;;;;;;;;;;;;;;;;;5038461;28;19932;-76
2022/06/30 13:06:02;;;;;;;;;;;;;;;;;;5038475;28;19925;-76
2022/06/30 13:08:28;;;;;;;;;;;;;;;;;;5039690;28;19920;-76
2022/06/30 13:11:06;;;;;;;;;;;;;;;;;;5039938;28;19921;-74
2022/06/30 13:13:33;;;;;;;;;;;;;;;;;;5040672;28;19925;-73
2022/06/30 13:15:59;;;;;;;;;;;;;;;;;;5040514;28;19928;-74
2022/06/30 13:18:25;;;;;;;;;;;;;;;;;;5039304;28;19921;-74
2022/06/30 13:20:51;;;;;;;;;;;;;;;;;;5039608;28;19925;-74
2022/06/30 13:23:17;;;;;;;;;;;;;;;;;;5039133;28;19929;-74
2022/06/30 13:25:43;;;;;;;;;;;;;;;;;;5040832;28;19928;-74
2022/06/30 13:28:09;;;;;;;;;;;;;;;;;;5039763;28;19925;-74
2022/06/30 13:30:36;;;;;;;;;;;;;;;;;;5038093;28;19936;-73
2022/06/30 13:33:02;;;;;;;;;;;;;;;;;;5039811;28;19921;-73
2022/06/30 13:35:28;;;;;;;;;;;;;;;;;;5038001;28;19929;-73
2022/06/30 13:37:54;;;;;;;;;;;;;;;;;;5037743;28;19927;-73
2022/06/30 13:40:20;;;;;;;;;;;;;;;;;;5040280;28;19928;-74
2022/06/30 13:42:46;;;;;;;;;;;;;;;;;;5039637;28;19928;-74
2022/06/30 13:45:12;;;;;;;;;;;;;;;;;;5039508;28;19925;-74
2022/06/30 13:47:38;;;;;;;;;;;;;;;;;;5039706;28;19921;-74
2022/06/30 13:50:05;;;;;;;;;;;;;;;;;;5036618;28;19932;-73
2022/06/30 13:52:34;;;;;;;;;;;;;;;;;;5037170;28;20373;-73
2022/06/30 13:55:00;;;;;;;;;;;;;;;;;;5039149;28;19967;-74
2022/06/30 13:57:26;;;;;;;;;;;;;;;;;;5038509;28;20411;-74
2022/06/30 13:59:52;;;;;;;;;;;;;;;;;;5039509;28;20578;-73
2022/06/30 14:02:18;;;;;;;;;;;;;;;;;;5039093;28;20328;-73
2022/06/30 14:04:44;;;;;;;;;;;;;;;;;;5037655;28;20478;-74
2022/06/30 14:07:11;;;;;;;;;;;;;;;;;;5038528;28;19925;-73
2022/06/30 14:09:37;;;;;;;;;;;;;;;;;;5038883;28;19936;-74
2022/06/30 14:12:03;;;;;;;;;;;;;;;;;;5039048;28;19931;-73
2022/06/30 14:14:29;;;;;;;;;;;;;;;;;;5043402;28;19925;-73
2022/06/30 14:16:56;;;;;;;;;;;;;;;;;;5041811;28;19921;-74
2022/06/30 14:19:22;;;;;;;;;;;;;;;;;;5040863;28;20394;-74
2022/06/30 14:21:49;;;;;;;;;;;;;;;;;;5042903;28;19924;-74
2022/06/30 14:24:15;;;;;;;;;;;;;;;;;;5043537;28;19925;-74
2022/06/30 14:26:41;;;;;;;;;;;;;;;;;;5043491;28;20482;-74
2022/06/30 14:29:09;;;;;;;;;;;;;;;;;;5043485;28;20281;-73
2022/06/30 14:31:35;;;;;;;;;;;;;;;;;;5043376;28;19924;-73
2022/06/30 14:34:01;;;;;;;;;;;;;;;;;;5043025;28;19928;-74
2022/06/30 14:36:28;;;;;;;;;;;;;;;;;;5042619;28;19925;-73
2022/06/30 14:38:54;;;;;;;;;;;;;;;;;;5040954;28;19921;-73
2022/06/30 14:44:00;;;;;;;;;;;;;;;;;;5039899;28;20012;-74
2022/06/30 14:46:26;;;;;;;;;;;;;;;;;;5042283;28;19928;-73
2022/06/30 14:48:52;;;;;;;;;;;;;;;;;;5042545;28;19925;-74
2022/06/30 14:51:18;;;;;;;;;;;;;;;;;;5043005;28;19925;-73
2022/06/30 14:53:44;;;;;;;;;;;;;;;;;;5041255;28;19920;-73
2022/06/30 14:56:11;;;;;;;;;;;;;;;;;;5042999;28;19932;-73
2022/06/30 14:58:37;;;;;;;;;;;;;;;;;;5041149;28;19921;-74
2022/06/30 15:01:03;;;;;;;;;;;;;;;;;;5041612;28;19921;-74
2022/06/30 15:03:35;;;;;;;;;;;;;;;;;;5042256;28;19932;-74
2022/06/30 15:06:01;;;;;;;;;;;;;;;;;;5040676;28;20342;-73
2022/06/30 15:08:27;;;;;;;;;;;;;;;;;;5040502;28;20284;-74
2022/06/30 15:10:54;;;;;;;;;;;;;;;;;;5043059;28;20282;-73
2022/06/30 15:13:20;;;;;;;;;;;;;;;;;;5042435;28;19924;-74
2022/06/30 15:15:46;;;;;;;;;;;;;;;;;;5039869;28;19928;-73
2022/06/30 15:18:12;;;;;;;;;;;;;;;;;;5040682;28;19921;-74
2022/06/30 15:20:39;;;;;;;;;;;;;;;;;;5042196;28;19929;-74
2022/06/30 15:25:50;;;;;;;;;;;;;;;;;;5040441;28;19966;-74
2022/06/30 15:28:17;;;;;;;;;;;;;;;;;;5041331;28;19921;-73